Hoxeyville, Michigan
Current Conditions -  °F | °C
As of 12:14 AM on Saturday 20 Dec 2014 (Local Time) from KCAD Reporting Station
Clear Clear  
Wind Chill:   Ceiling: Unl
Heat Index:   Visibility: 10mi
Dew Point:   Wind: 0mph
Humidity: 87%   Direction: NA
Pressure: 30.22"   Gusts: NA
Location:  44.2433°N, 85.5328°W
Report Text: KCAD 200514Z AUTO 00000KT 10SM CLR M13/M15 A3022 RMK AO2 T11301147
Loading
Personal Weather Stations






























Interactive Weather Map New forecast layout! Learn more

10-Day Weather Forecast

Advertisements
Track Severe Weather on mobile